sensor_id;sensor_type;location;lat;lon;timestamp;P1;durP1;ratioP1;P2;durP2;ratioP2
82022;SDS011;71575;49.908;18.356;2023-08-20T00:02:27;23.80;;;15.98;;
82022;SDS011;71575;49.908;18.356;2023-08-20T00:05:09;21.42;;;16.05;;
82022;SDS011;71575;49.908;18.356;2023-08-20T00:07:49;22.77;;;16.55;;
82022;SDS011;71575;49.908;18.356;2023-08-20T00:10:30;22.65;;;14.25;;
82022;SDS011;71575;49.908;18.356;2023-08-20T00:13:11;21.95;;;14.55;;
82022;SDS011;71575;49.908;18.356;2023-08-20T00:15:52;22.10;;;17.15;;
82022;SDS011;71575;49.908;18.356;2023-08-20T00:18:32;22.02;;;14.40;;
82022;SDS011;71575;49.908;18.356;2023-08-20T00:21:13;20.95;;;16.20;;
82022;SDS011;71575;49.908;18.356;2023-08-20T00:23:54;22.20;;;17.10;;
82022;SDS011;71575;49.908;18.356;2023-08-20T00:26:35;18.95;;;13.13;;
82022;SDS011;71575;49.908;18.356;2023-08-20T00:29:15;21.42;;;15.35;;
82022;SDS011;71575;49.908;18.356;2023-08-20T00:31:56;22.33;;;17.80;;
82022;SDS011;71575;49.908;18.356;2023-08-20T00:34:36;20.98;;;17.30;;
82022;SDS011;71575;49.908;18.356;2023-08-20T00:37:17;23.02;;;16.73;;
82022;SDS011;71575;49.908;18.356;2023-08-20T00:39:57;19.38;;;14.23;;
82022;SDS011;71575;49.908;18.356;2023-08-20T00:42:38;17.70;;;13.00;;
82022;SDS011;71575;49.908;18.356;2023-08-20T00:45:19;20.50;;;16.75;;
82022;SDS011;71575;49.908;18.356;2023-08-20T00:47:59;20.30;;;15.40;;
82022;SDS011;71575;49.908;18.356;2023-08-20T00:50:40;21.17;;;16.02;;
82022;SDS011;71575;49.908;18.356;2023-08-20T00:53:21;22.58;;;16.63;;
82022;SDS011;71575;49.908;18.356;2023-08-20T00:56:01;20.42;;;13.60;;
82022;SDS011;71575;49.908;18.356;2023-08-20T00:58:42;21.85;;;17.55;;
82022;SDS011;71575;49.908;18.356;2023-08-20T01:01:22;20.15;;;13.43;;
82022;SDS011;71575;49.908;18.356;2023-08-20T01:04:03;22.20;;;17.13;;
82022;SDS011;71575;49.908;18.356;2023-08-20T01:06:46;21.30;;;17.20;;
82022;SDS011;71575;49.908;18.356;2023-08-20T01:10:33;25.50;;;18.25;;
82022;SDS011;71575;49.908;18.356;2023-08-20T01:12:54;24.30;;;18.10;;
82022;SDS011;71575;49.908;18.356;2023-08-20T01:15:35;21.88;;;16.73;;
82022;SDS011;71575;49.908;18.356;2023-08-20T01:18:15;21.33;;;14.75;;
82022;SDS011;71575;49.908;18.356;2023-08-20T01:20:59;22.63;;;16.15;;
82022;SDS011;71575;49.908;18.356;2023-08-20T01:23:48;22.17;;;16.92;;
82022;SDS011;71575;49.908;18.356;2023-08-20T01:26:46;21.73;;;17.70;;
82022;SDS011;71575;49.908;18.356;2023-08-20T01:29:31;23.23;;;17.83;;
82022;SDS011;71575;49.908;18.356;2023-08-20T01:32:12;22.67;;;17.00;;
82022;SDS011;71575;49.908;18.356;2023-08-20T01:34:53;21.70;;;15.32;;
82022;SDS011;71575;49.908;18.356;2023-08-20T01:37:34;25.40;;;18.65;;
82022;SDS011;71575;49.908;18.356;2023-08-20T01:40:14;20.95;;;14.93;;
82022;SDS011;71575;49.908;18.356;2023-08-20T01:42:55;19.02;;;15.30;;
82022;SDS011;71575;49.908;18.356;2023-08-20T01:45:35;22.20;;;16.95;;
82022;SDS011;71575;49.908;18.356;2023-08-20T01:48:16;21.90;;;17.05;;
82022;SDS011;71575;49.908;18.356;2023-08-20T01:50:56;27.10;;;17.77;;
82022;SDS011;71575;49.908;18.356;2023-08-20T01:53:37;21.77;;;16.52;;
82022;SDS011;71575;49.908;18.356;2023-08-20T01:56:17;25.65;;;18.80;;
82022;SDS011;71575;49.908;18.356;2023-08-20T01:58:58;23.17;;;16.40;;
82022;SDS011;71575;49.908;18.356;2023-08-20T02:01:38;21.60;;;18.88;;
82022;SDS011;71575;49.908;18.356;2023-08-20T02:04:19;23.42;;;17.00;;
82022;SDS011;71575;49.908;18.356;2023-08-20T02:06:59;23.77;;;17.42;;
82022;SDS011;71575;49.908;18.356;2023-08-20T02:09:40;21.33;;;16.60;;
82022;SDS011;71575;49.908;18.356;2023-08-20T02:12:20;22.02;;;16.17;;
82022;SDS011;71575;49.908;18.356;2023-08-20T02:15:02;20.90;;;16.67;;
82022;SDS011;71575;49.908;18.356;2023-08-20T02:17:42;19.95;;;15.50;;
82022;SDS011;71575;49.908;18.356;2023-08-20T02:20:23;19.60;;;16.38;;
82022;SDS011;71575;49.908;18.356;2023-08-20T02:23:04;20.02;;;15.13;;
82022;SDS011;71575;49.908;18.356;2023-08-20T02:25:44;21.05;;;16.05;;
82022;SDS011;71575;49.908;18.356;2023-08-20T02:28:24;20.70;;;15.27;;
82022;SDS011;71575;49.908;18.356;2023-08-20T02:31:05;20.80;;;15.80;;
82022;SDS011;71575;49.908;18.356;2023-08-20T02:33:46;21.23;;;15.50;;
82022;SDS011;71575;49.908;18.356;2023-08-20T02:36:26;21.60;;;15.77;;
82022;SDS011;71575;49.908;18.356;2023-08-20T02:39:07;22.85;;;16.52;;
82022;SDS011;71575;49.908;18.356;2023-08-20T02:41:47;21.25;;;15.93;;
82022;SDS011;71575;49.908;18.356;2023-08-20T02:44:28;20.15;;;15.57;;
82022;SDS011;71575;49.908;18.356;2023-08-20T02:47:08;20.13;;;15.52;;
82022;SDS011;71575;49.908;18.356;2023-08-20T02:49:49;19.67;;;13.52;;
82022;SDS011;71575;49.908;18.356;2023-08-20T02:52:29;19.85;;;14.60;;
82022;SDS011;71575;49.908;18.356;2023-08-20T02:55:10;20.58;;;14.10;;
82022;SDS011;71575;49.908;18.356;2023-08-20T02:57:51;19.25;;;12.82;;
82022;SDS011;71575;49.908;18.356;2023-08-20T03:00:31;19.23;;;12.45;;
82022;SDS011;71575;49.908;18.356;2023-08-20T03:03:12;20.83;;;17.00;;
82022;SDS011;71575;49.908;18.356;2023-08-20T03:05:53;20.75;;;16.92;;
82022;SDS011;71575;49.908;18.356;2023-08-20T03:08:34;20.92;;;14.55;;
82022;SDS011;71575;49.908;18.356;2023-08-20T03:11:14;22.83;;;17.38;;
82022;SDS011;71575;49.908;18.356;2023-08-20T03:13:55;20.85;;;15.55;;
82022;SDS011;71575;49.908;18.356;2023-08-20T03:16:35;23.80;;;16.38;;
82022;SDS011;71575;49.908;18.356;2023-08-20T03:19:17;19.95;;;15.85;;
82022;SDS011;71575;49.908;18.356;2023-08-20T03:21:58;22.98;;;17.67;;
82022;SDS011;71575;49.908;18.356;2023-08-20T03:24:38;21.30;;;15.35;;
82022;SDS011;71575;49.908;18.356;2023-08-20T03:27:19;22.63;;;16.67;;
82022;SDS011;71575;49.908;18.356;2023-08-20T03:30:00;21.88;;;17.27;;
82022;SDS011;71575;49.908;18.356;2023-08-20T03:32:41;22.17;;;17.30;;
82022;SDS011;71575;49.908;18.356;2023-08-20T03:35:22;23.30;;;16.15;;
82022;SDS011;71575;49.908;18.356;2023-08-20T03:38:02;22.90;;;15.85;;
82022;SDS011;71575;49.908;18.356;2023-08-20T03:40:45;21.42;;;14.20;;
82022;SDS011;71575;49.908;18.356;2023-08-20T03:43:25;27.05;;;16.73;;
82022;SDS011;71575;49.908;18.356;2023-08-20T03:46:06;23.45;;;16.20;;
82022;SDS011;71575;49.908;18.356;2023-08-20T03:48:46;24.50;;;16.73;;
82022;SDS011;71575;49.908;18.356;2023-08-20T03:51:27;27.35;;;20.52;;
82022;SDS011;71575;49.908;18.356;2023-08-20T03:54:07;21.65;;;16.70;;
82022;SDS011;71575;49.908;18.356;2023-08-20T03:56:48;21.52;;;13.73;;
82022;SDS011;71575;49.908;18.356;2023-08-20T03:59:29;22.67;;;16.98;;
82022;SDS011;71575;49.908;18.356;2023-08-20T04:02:10;23.60;;;17.30;;
82022;SDS011;71575;49.908;18.356;2023-08-20T04:04:51;24.10;;;17.20;;
82022;SDS011;71575;49.908;18.356;2023-08-20T04:07:31;20.25;;;15.02;;
82022;SDS011;71575;49.908;18.356;2023-08-20T04:10:12;23.35;;;15.30;;
82022;SDS011;71575;49.908;18.356;2023-08-20T04:12:53;20.83;;;15.68;;
82022;SDS011;71575;49.908;18.356;2023-08-20T04:15:33;23.92;;;17.25;;
82022;SDS011;71575;49.908;18.356;2023-08-20T04:18:14;22.13;;;15.98;;
82022;SDS011;71575;49.908;18.356;2023-08-20T04:20:54;22.90;;;14.90;;
82022;SDS011;71575;49.908;18.356;2023-08-20T04:23:35;20.92;;;16.33;;
82022;SDS011;71575;49.908;18.356;2023-08-20T04:26:15;19.70;;;15.93;;
82022;SDS011;71575;49.908;18.356;2023-08-20T04:28:56;23.45;;;17.17;;
82022;SDS011;71575;49.908;18.356;2023-08-20T04:31:36;20.23;;;15.48;;
82022;SDS011;71575;49.908;18.356;2023-08-20T04:34:17;19.30;;;15.18;;
82022;SDS011;71575;49.908;18.356;2023-08-20T04:36:57;21.70;;;15.35;;
82022;SDS011;71575;49.908;18.356;2023-08-20T04:39:38;23.60;;;18.27;;
82022;SDS011;71575;49.908;18.356;2023-08-20T04:42:18;20.92;;;17.65;;
82022;SDS011;71575;49.908;18.356;2023-08-20T04:44:59;22.50;;;15.88;;
82022;SDS011;71575;49.908;18.356;2023-08-20T04:47:39;18.58;;;15.93;;
82022;SDS011;71575;49.908;18.356;2023-08-20T04:50:20;19.50;;;16.58;;
82022;SDS011;71575;49.908;18.356;2023-08-20T04:53:00;18.25;;;14.90;;
82022;SDS011;71575;49.908;18.356;2023-08-20T04:55:41;15.55;;;11.63;;
82022;SDS011;71575;49.908;18.356;2023-08-20T04:58:22;17.70;;;11.32;;
82022;SDS011;71575;49.908;18.356;2023-08-20T05:01:03;18.85;;;12.55;;
82022;SDS011;71575;49.908;18.356;2023-08-20T05:03:43;20.05;;;12.40;;
82022;SDS011;71575;49.908;18.356;2023-08-20T05:06:24;18.35;;;12.90;;
82022;SDS011;71575;49.908;18.356;2023-08-20T05:09:04;18.13;;;12.15;;
82022;SDS011;71575;49.908;18.356;2023-08-20T05:11:45;18.33;;;16.45;;
82022;SDS011;71575;49.908;18.356;2023-08-20T05:14:25;15.82;;;12.20;;
82022;SDS011;71575;49.908;18.356;2023-08-20T05:17:06;14.68;;;10.68;;
82022;SDS011;71575;49.908;18.356;2023-08-20T05:19:46;16.02;;;13.02;;
82022;SDS011;71575;49.908;18.356;2023-08-20T05:22:27;15.52;;;12.25;;
82022;SDS011;71575;49.908;18.356;2023-08-20T05:25:13;16.40;;;14.80;;
82022;SDS011;71575;49.908;18.356;2023-08-20T05:27:55;16.30;;;14.80;;
82022;SDS011;71575;49.908;18.356;2023-08-20T05:30:36;14.50;;;11.48;;
82022;SDS011;71575;49.908;18.356;2023-08-20T05:33:16;17.38;;;15.77;;
82022;SDS011;71575;49.908;18.356;2023-08-20T05:35:57;17.05;;;15.45;;
82022;SDS011;71575;49.908;18.356;2023-08-20T05:38:39;16.83;;;15.23;;
82022;SDS011;71575;49.908;18.356;2023-08-20T05:41:20;14.68;;;13.05;;
82022;SDS011;71575;49.908;18.356;2023-08-20T05:44:01;14.18;;;12.40;;
82022;SDS011;71575;49.908;18.356;2023-08-20T05:46:42;18.20;;;16.30;;
82022;SDS011;71575;49.908;18.356;2023-08-20T05:49:23;15.45;;;11.88;;
82022;SDS011;71575;49.908;18.356;2023-08-20T05:52:04;16.55;;;15.00;;
82022;SDS011;71575;49.908;18.356;2023-08-20T05:54:44;17.83;;;16.05;;
82022;SDS011;71575;49.908;18.356;2023-08-20T05:57:24;17.20;;;15.60;;
82022;SDS011;71575;49.908;18.356;2023-08-20T06:00:05;14.90;;;11.80;;
82022;SDS011;71575;49.908;18.356;2023-08-20T06:02:46;20.40;;;18.67;;
82022;SDS011;71575;49.908;18.356;2023-08-20T06:05:33;16.38;;;13.48;;
82022;SDS011;71575;49.908;18.356;2023-08-20T06:08:17;18.98;;;17.20;;
82022;SDS011;71575;49.908;18.356;2023-08-20T06:11:16;17.17;;;15.57;;
82022;SDS011;71575;49.908;18.356;2023-08-20T06:13:57;19.00;;;17.40;;
82022;SDS011;71575;49.908;18.356;2023-08-20T06:16:37;18.02;;;16.45;;
82022;SDS011;71575;49.908;18.356;2023-08-20T06:19:18;17.98;;;16.38;;
82022;SDS011;71575;49.908;18.356;2023-08-20T06:21:58;18.30;;;16.58;;
82022;SDS011;71575;49.908;18.356;2023-08-20T06:24:54;15.52;;;13.73;;
82022;SDS011;71575;49.908;18.356;2023-08-20T06:27:49;15.63;;;13.15;;
82022;SDS011;71575;49.908;18.356;2023-08-20T06:30:30;16.65;;;14.95;;
82022;SDS011;71575;49.908;18.356;2023-08-20T06:33:11;18.10;;;16.08;;
82022;SDS011;71575;49.908;18.356;2023-08-20T06:36:07;19.02;;;17.10;;
82022;SDS011;71575;49.908;18.356;2023-08-20T06:38:55;19.88;;;17.88;;
82022;SDS011;71575;49.908;18.356;2023-08-20T06:41:35;20.80;;;18.80;;
82022;SDS011;71575;49.908;18.356;2023-08-20T06:44:31;16.45;;;13.77;;
82022;SDS011;71575;49.908;18.356;2023-08-20T06:47:26;18.27;;;14.52;;
82022;SDS011;71575;49.908;18.356;2023-08-20T06:50:21;19.58;;;17.55;;
82022;SDS011;71575;49.908;18.356;2023-08-20T06:53:18;18.02;;;16.13;;
82022;SDS011;71575;49.908;18.356;2023-08-20T06:56:13;16.73;;;12.70;;
82022;SDS011;71575;49.908;18.356;2023-08-20T06:59:09;17.85;;;15.55;;
82022;SDS011;71575;49.908;18.356;2023-08-20T07:02:04;18.73;;;16.25;;
82022;SDS011;71575;49.908;18.356;2023-08-20T07:04:59;19.58;;;13.13;;
82022;SDS011;71575;49.908;18.356;2023-08-20T07:07:40;18.00;;;15.15;;
82022;SDS011;71575;49.908;18.356;2023-08-20T07:10:22;15.90;;;12.43;;
82022;SDS011;71575;49.908;18.356;2023-08-20T07:13:17;17.70;;;15.88;;
82022;SDS011;71575;49.908;18.356;2023-08-20T07:16:12;15.02;;;12.02;;
82022;SDS011;71575;49.908;18.356;2023-08-20T07:19:08;15.52;;;12.68;;
82022;SDS011;71575;49.908;18.356;2023-08-20T07:22:03;16.77;;;14.65;;
82022;SDS011;71575;49.908;18.356;2023-08-20T07:24:44;14.40;;;11.40;;
82022;SDS011;71575;49.908;18.356;2023-08-20T07:27:25;18.40;;;12.95;;
82022;SDS011;71575;49.908;18.356;2023-08-20T07:30:20;16.65;;;14.00;;
82022;SDS011;71575;49.908;18.356;2023-08-20T07:33:15;15.55;;;10.68;;
82022;SDS011;71575;49.908;18.356;2023-08-20T07:36:10;15.45;;;10.52;;
82022;SDS011;71575;49.908;18.356;2023-08-20T07:39:06;15.65;;;13.05;;
82022;SDS011;71575;49.908;18.356;2023-08-20T07:42:01;16.00;;;13.68;;
82022;SDS011;71575;49.908;18.356;2023-08-20T07:44:56;13.75;;;12.23;;
82022;SDS011;71575;49.908;18.356;2023-08-20T07:47:52;13.85;;;12.05;;
82022;SDS011;71575;49.908;18.356;2023-08-20T07:50:47;16.40;;;11.15;;
82022;SDS011;71575;49.908;18.356;2023-08-20T07:53:42;15.13;;;13.50;;
82022;SDS011;71575;49.908;18.356;2023-08-20T07:56:23;14.68;;;11.13;;
82022;SDS011;71575;49.908;18.356;2023-08-20T07:59:04;13.65;;;10.95;;
82022;SDS011;71575;49.908;18.356;2023-08-20T08:01:59;14.73;;;13.23;;
82022;SDS011;71575;49.908;18.356;2023-08-20T08:04:55;14.65;;;12.73;;
82022;SDS011;71575;49.908;18.356;2023-08-20T08:07:50;14.15;;;12.63;;
82022;SDS011;71575;49.908;18.356;2023-08-20T08:10:45;13.80;;;9.20;;
82022;SDS011;71575;49.908;18.356;2023-08-20T08:13:26;11.75;;;9.95;;
82022;SDS011;71575;49.908;18.356;2023-08-20T08:16:07;13.05;;;10.15;;
82022;SDS011;71575;49.908;18.356;2023-08-20T08:18:47;13.48;;;9.02;;
82022;SDS011;71575;49.908;18.356;2023-08-20T08:21:28;13.50;;;9.65;;
82022;SDS011;71575;49.908;18.356;2023-08-20T08:24:23;13.75;;;10.20;;
82022;SDS011;71575;49.908;18.356;2023-08-20T08:27:19;14.80;;;13.35;;
82022;SDS011;71575;49.908;18.356;2023-08-20T08:30:00;14.50;;;9.65;;
82022;SDS011;71575;49.908;18.356;2023-08-20T08:32:40;13.30;;;10.13;;
82022;SDS011;71575;49.908;18.356;2023-08-20T08:35:35;12.13;;;8.73;;
82022;SDS011;71575;49.908;18.356;2023-08-20T08:38:31;12.45;;;8.73;;
82022;SDS011;71575;49.908;18.356;2023-08-20T08:41:26;11.88;;;9.27;;
82022;SDS011;71575;49.908;18.356;2023-08-20T08:44:23;12.90;;;8.63;;
82022;SDS011;71575;49.908;18.356;2023-08-20T08:47:21;11.60;;;9.90;;
82022;SDS011;71575;49.908;18.356;2023-08-20T08:50:16;13.23;;;11.85;;
82022;SDS011;71575;49.908;18.356;2023-08-20T08:53:12;13.13;;;11.40;;
82022;SDS011;71575;49.908;18.356;2023-08-20T08:56:08;11.40;;;8.35;;
82022;SDS011;71575;49.908;18.356;2023-08-20T08:59:03;15.00;;;9.23;;
82022;SDS011;71575;49.908;18.356;2023-08-20T09:01:59;13.13;;;9.32;;
82022;SDS011;71575;49.908;18.356;2023-08-20T09:04:54;12.13;;;9.38;;
82022;SDS011;71575;49.908;18.356;2023-08-20T09:07:55;13.82;;;11.88;;
82022;SDS011;71575;49.908;18.356;2023-08-20T09:10:51;11.63;;;8.82;;
82022;SDS011;71575;49.908;18.356;2023-08-20T09:13:47;13.20;;;9.10;;
82022;SDS011;71575;49.908;18.356;2023-08-20T09:16:42;12.80;;;9.38;;
82022;SDS011;71575;49.908;18.356;2023-08-20T09:19:38;13.05;;;8.95;;
82022;SDS011;71575;49.908;18.356;2023-08-20T09:22:35;12.45;;;8.70;;
82022;SDS011;71575;49.908;18.356;2023-08-20T09:27:56;13.43;;;8.50;;
82022;SDS011;71575;49.908;18.356;2023-08-20T09:30:37;12.05;;;8.63;;
82022;SDS011;71575;49.908;18.356;2023-08-20T09:33:17;11.65;;;9.38;;
82022;SDS011;71575;49.908;18.356;2023-08-20T09:36:13;11.98;;;10.40;;
82022;SDS011;71575;49.908;18.356;2023-08-20T09:38:54;11.07;;;8.63;;
82022;SDS011;71575;49.908;18.356;2023-08-20T09:41:34;14.20;;;12.50;;
82022;SDS011;71575;49.908;18.356;2023-08-20T09:44:34;11.88;;;8.52;;
82022;SDS011;71575;49.908;18.356;2023-08-20T09:47:19;11.52;;;10.32;;
82022;SDS011;71575;49.908;18.356;2023-08-20T09:50:00;10.82;;;7.72;;
82022;SDS011;71575;49.908;18.356;2023-08-20T09:53:03;11.27;;;8.90;;
82022;SDS011;71575;49.908;18.356;2023-08-20T09:56:21;10.02;;;7.60;;
82022;SDS011;71575;49.908;18.356;2023-08-20T09:59:20;9.68;;;7.40;;
82022;SDS011;71575;49.908;18.356;2023-08-20T10:02:16;12.15;;;10.65;;
82022;SDS011;71575;49.908;18.356;2023-08-20T10:05:12;10.25;;;6.57;;
82022;SDS011;71575;49.908;18.356;2023-08-20T10:08:07;10.75;;;9.38;;
82022;SDS011;71575;49.908;18.356;2023-08-20T10:11:03;9.82;;;7.07;;
82022;SDS011;71575;49.908;18.356;2023-08-20T10:13:58;9.02;;;7.25;;
82022;SDS011;71575;49.908;18.356;2023-08-20T10:16:54;9.90;;;6.72;;
82022;SDS011;71575;49.908;18.356;2023-08-20T10:19:51;10.70;;;6.72;;
82022;SDS011;71575;49.908;18.356;2023-08-20T10:22:47;10.52;;;7.03;;
82022;SDS011;71575;49.908;18.356;2023-08-20T10:25:30;9.10;;;6.57;;
82022;SDS011;71575;49.908;18.356;2023-08-20T10:28:11;9.57;;;7.10;;
82022;SDS011;71575;49.908;18.356;2023-08-20T10:34:08;10.18;;;6.35;;
82022;SDS011;71575;49.908;18.356;2023-08-20T10:37:13;7.80;;;6.18;;
82022;SDS011;71575;49.908;18.356;2023-08-20T10:40:08;8.85;;;6.47;;
82022;SDS011;71575;49.908;18.356;2023-08-20T10:43:04;9.73;;;8.43;;
82022;SDS011;71575;49.908;18.356;2023-08-20T10:49:09;10.95;;;9.18;;
82022;SDS011;71575;49.908;18.356;2023-08-20T10:52:11;7.90;;;7.10;;
82022;SDS011;71575;49.908;18.356;2023-08-20T10:55:08;8.82;;;7.38;;
82022;SDS011;71575;49.908;18.356;2023-08-20T10:58:03;8.23;;;5.45;;
82022;SDS011;71575;49.908;18.356;2023-08-20T11:00:46;7.68;;;5.90;;
82022;SDS011;71575;49.908;18.356;2023-08-20T11:03:54;8.15;;;6.72;;
82022;SDS011;71575;49.908;18.356;2023-08-20T11:06:35;10.65;;;9.65;;
82022;SDS011;71575;49.908;18.356;2023-08-20T11:09:16;8.50;;;6.07;;
82022;SDS011;71575;49.908;18.356;2023-08-20T11:11:58;9.75;;;6.75;;
82022;SDS011;71575;49.908;18.356;2023-08-20T11:14:38;11.68;;;9.38;;
82022;SDS011;71575;49.908;18.356;2023-08-20T11:17:39;8.25;;;6.10;;
82022;SDS011;71575;49.908;18.356;2023-08-20T11:20:35;8.20;;;6.25;;
82022;SDS011;71575;49.908;18.356;2023-08-20T11:23:31;8.45;;;6.22;;
82022;SDS011;71575;49.908;18.356;2023-08-20T11:26:26;8.80;;;6.53;;
82022;SDS011;71575;49.908;18.356;2023-08-20T11:29:22;9.10;;;5.88;;
82022;SDS011;71575;49.908;18.356;2023-08-20T11:32:17;10.43;;;8.15;;
82022;SDS011;71575;49.908;18.356;2023-08-20T11:35:13;10.05;;;9.05;;
82022;SDS011;71575;49.908;18.356;2023-08-20T11:38:09;9.60;;;8.60;;
82022;SDS011;71575;49.908;18.356;2023-08-20T11:41:05;9.73;;;7.22;;
82022;SDS011;71575;49.908;18.356;2023-08-20T11:44:01;8.77;;;6.10;;
82022;SDS011;71575;49.908;18.356;2023-08-20T11:46:56;9.15;;;7.78;;
82022;SDS011;71575;49.908;18.356;2023-08-20T11:50:09;8.43;;;6.75;;
82022;SDS011;71575;49.908;18.356;2023-08-20T11:53:09;8.20;;;5.40;;
82022;SDS011;71575;49.908;18.356;2023-08-20T11:56:04;8.95;;;6.45;;
82022;SDS011;71575;49.908;18.356;2023-08-20T11:59:00;10.32;;;7.75;;
82022;SDS011;71575;49.908;18.356;2023-08-20T12:01:57;8.38;;;5.35;;
82022;SDS011;71575;49.908;18.356;2023-08-20T12:04:56;9.30;;;5.82;;
82022;SDS011;71575;49.908;18.356;2023-08-20T12:07:58;8.88;;;7.97;;
82022;SDS011;71575;49.908;18.356;2023-08-20T12:10:54;9.55;;;6.32;;
82022;SDS011;71575;49.908;18.356;2023-08-20T12:13:52;8.48;;;5.78;;
82022;SDS011;71575;49.908;18.356;2023-08-20T12:16:48;8.85;;;5.68;;
82022;SDS011;71575;49.908;18.356;2023-08-20T12:19:43;10.18;;;6.38;;
82022;SDS011;71575;49.908;18.356;2023-08-20T12:22:39;8.57;;;5.55;;
82022;SDS011;71575;49.908;18.356;2023-08-20T12:25:35;9.23;;;6.93;;
82022;SDS011;71575;49.908;18.356;2023-08-20T12:28:30;9.77;;;7.53;;
82022;SDS011;71575;49.908;18.356;2023-08-20T12:31:26;7.88;;;5.65;;
82022;SDS011;71575;49.908;18.356;2023-08-20T12:34:21;8.15;;;5.78;;
82022;SDS011;71575;49.908;18.356;2023-08-20T12:37:17;7.75;;;5.38;;
82022;SDS011;71575;49.908;18.356;2023-08-20T12:40:12;9.13;;;6.40;;
82022;SDS011;71575;49.908;18.356;2023-08-20T12:43:07;7.18;;;5.30;;
82022;SDS011;71575;49.908;18.356;2023-08-20T12:46:03;9.27;;;6.93;;
82022;SDS011;71575;49.908;18.356;2023-08-20T12:48:58;7.97;;;6.60;;
82022;SDS011;71575;49.908;18.356;2023-08-20T12:51:53;9.98;;;7.07;;
82022;SDS011;71575;49.908;18.356;2023-08-20T12:54:49;10.90;;;5.72;;
82022;SDS011;71575;49.908;18.356;2023-08-20T12:57:54;8.50;;;7.68;;
82022;SDS011;71575;49.908;18.356;2023-08-20T13:00:53;7.90;;;5.90;;
82022;SDS011;71575;49.908;18.356;2023-08-20T13:03:49;9.57;;;8.57;;
82022;SDS011;71575;49.908;18.356;2023-08-20T13:06:44;10.88;;;5.20;;
82022;SDS011;71575;49.908;18.356;2023-08-20T13:09:35;8.73;;;5.22;;
82022;SDS011;71575;49.908;18.356;2023-08-20T13:12:16;9.15;;;5.88;;
82022;SDS011;71575;49.908;18.356;2023-08-20T13:14:59;7.72;;;5.85;;
82022;SDS011;71575;49.908;18.356;2023-08-20T13:17:39;9.25;;;6.60;;
82022;SDS011;71575;49.908;18.356;2023-08-20T13:20:24;8.10;;;4.63;;
82022;SDS011;71575;49.908;18.356;2023-08-20T13:23:04;7.53;;;4.95;;
82022;SDS011;71575;49.908;18.356;2023-08-20T13:26:00;8.02;;;5.47;;
82022;SDS011;71575;49.908;18.356;2023-08-20T13:28:55;9.57;;;4.50;;
82022;SDS011;71575;49.908;18.356;2023-08-20T13:31:50;9.63;;;4.75;;
82022;SDS011;71575;49.908;18.356;2023-08-20T13:34:46;10.55;;;5.40;;
82022;SDS011;71575;49.908;18.356;2023-08-20T13:37:41;8.13;;;6.40;;
82022;SDS011;71575;49.908;18.356;2023-08-20T13:40:37;9.30;;;7.20;;
82022;SDS011;71575;49.908;18.356;2023-08-20T13:43:17;8.27;;;5.05;;
82022;SDS011;71575;49.908;18.356;2023-08-20T13:45:58;10.80;;;8.98;;
82022;SDS011;71575;49.908;18.356;2023-08-20T13:48:53;9.00;;;7.03;;
82022;SDS011;71575;49.908;18.356;2023-08-20T13:51:48;8.50;;;6.75;;
82022;SDS011;71575;49.908;18.356;2023-08-20T13:54:44;8.05;;;5.25;;
82022;SDS011;71575;49.908;18.356;2023-08-20T13:57:24;10.07;;;5.40;;
82022;SDS011;71575;49.908;18.356;2023-08-20T14:00:05;11.88;;;8.65;;
82022;SDS011;71575;49.908;18.356;2023-08-20T14:03:03;7.70;;;5.82;;
82022;SDS011;71575;49.908;18.356;2023-08-20T14:05:44;8.05;;;6.35;;
82022;SDS011;71575;49.908;18.356;2023-08-20T14:08:24;10.57;;;9.48;;
82022;SDS011;71575;49.908;18.356;2023-08-20T14:11:05;8.18;;;5.55;;
82022;SDS011;71575;49.908;18.356;2023-08-20T14:13:45;7.60;;;5.82;;
82022;SDS011;71575;49.908;18.356;2023-08-20T14:16:42;8.60;;;5.90;;
82022;SDS011;71575;49.908;18.356;2023-08-20T14:19:37;8.07;;;5.47;;
82022;SDS011;71575;49.908;18.356;2023-08-20T14:22:33;8.43;;;6.05;;
82022;SDS011;71575;49.908;18.356;2023-08-20T14:25:28;9.32;;;8.43;;
82022;SDS011;71575;49.908;18.356;2023-08-20T14:28:23;8.57;;;5.45;;
82022;SDS011;71575;49.908;18.356;2023-08-20T14:31:04;11.50;;;7.80;;
82022;SDS011;71575;49.908;18.356;2023-08-20T14:33:45;9.10;;;8.00;;
82022;SDS011;71575;49.908;18.356;2023-08-20T14:36:40;7.78;;;6.97;;
82022;SDS011;71575;49.908;18.356;2023-08-20T14:39:35;8.50;;;7.03;;
82022;SDS011;71575;49.908;18.356;2023-08-20T14:42:31;10.05;;;6.60;;
82022;SDS011;71575;49.908;18.356;2023-08-20T14:45:26;9.10;;;7.10;;
82022;SDS011;71575;49.908;18.356;2023-08-20T14:48:22;8.63;;;6.78;;
82022;SDS011;71575;49.908;18.356;2023-08-20T14:51:18;9.07;;;5.63;;
82022;SDS011;71575;49.908;18.356;2023-08-20T14:54:13;10.60;;;7.72;;
82022;SDS011;71575;49.908;18.356;2023-08-20T14:57:08;10.40;;;7.85;;
82022;SDS011;71575;49.908;18.356;2023-08-20T15:00:04;8.65;;;5.82;;
82022;SDS011;71575;49.908;18.356;2023-08-20T15:03:00;10.35;;;9.18;;
82022;SDS011;71575;49.908;18.356;2023-08-20T15:05:56;9.60;;;8.70;;
82022;SDS011;71575;49.908;18.356;2023-08-20T15:08:51;8.85;;;5.70;;
82022;SDS011;71575;49.908;18.356;2023-08-20T15:11:47;8.68;;;5.88;;
82022;SDS011;71575;49.908;18.356;2023-08-20T15:17:09;10.60;;;7.77;;
82022;SDS011;71575;49.908;18.356;2023-08-20T15:20:04;8.80;;;7.30;;
82022;SDS011;71575;49.908;18.356;2023-08-20T15:22:45;8.77;;;6.57;;
82022;SDS011;71575;49.908;18.356;2023-08-20T15:25:40;9.23;;;5.70;;
82022;SDS011;71575;49.908;18.356;2023-08-20T15:28:36;9.80;;;7.75;;
82022;SDS011;71575;49.908;18.356;2023-08-20T15:31:31;8.88;;;6.63;;
82022;SDS011;71575;49.908;18.356;2023-08-20T15:34:26;8.82;;;6.20;;
82022;SDS011;71575;49.908;18.356;2023-08-20T15:37:22;8.43;;;6.25;;
82022;SDS011;71575;49.908;18.356;2023-08-20T15:40:17;8.90;;;5.45;;
82022;SDS011;71575;49.908;18.356;2023-08-20T15:43:12;8.80;;;6.78;;
82022;SDS011;71575;49.908;18.356;2023-08-20T15:46:08;10.05;;;8.70;;
82022;SDS011;71575;49.908;18.356;2023-08-20T15:49:03;8.95;;;6.38;;
82022;SDS011;71575;49.908;18.356;2023-08-20T15:51:59;8.30;;;5.75;;
82022;SDS011;71575;49.908;18.356;2023-08-20T15:54:41;10.77;;;6.07;;
82022;SDS011;71575;49.908;18.356;2023-08-20T15:57:22;8.38;;;6.28;;
82022;SDS011;71575;49.908;18.356;2023-08-20T16:00:17;11.18;;;9.50;;
82022;SDS011;71575;49.908;18.356;2023-08-20T16:03:12;7.88;;;5.75;;
82022;SDS011;71575;49.908;18.356;2023-08-20T16:06:08;11.32;;;8.30;;
82022;SDS011;71575;49.908;18.356;2023-08-20T16:09:03;8.57;;;6.30;;
82022;SDS011;71575;49.908;18.356;2023-08-20T16:11:58;11.45;;;6.93;;
82022;SDS011;71575;49.908;18.356;2023-08-20T16:14:39;8.43;;;5.80;;
82022;SDS011;71575;49.908;18.356;2023-08-20T16:17:19;9.98;;;6.40;;
82022;SDS011;71575;49.908;18.356;2023-08-20T16:20:15;8.35;;;5.63;;
82022;SDS011;71575;49.908;18.356;2023-08-20T16:23:10;9.18;;;6.13;;
82022;SDS011;71575;49.908;18.356;2023-08-20T16:26:06;8.80;;;6.47;;
82022;SDS011;71575;49.908;18.356;2023-08-20T16:28:47;9.13;;;5.78;;
82022;SDS011;71575;49.908;18.356;2023-08-20T16:31:27;10.70;;;8.35;;